createdAt,value
2019-04-29T00:01:40.884Z,67.10
2019-04-29T00:04:10.377Z,67.30
2019-04-29T00:06:39.910Z,67.20
2019-04-29T00:09:14.083Z,67.60
2019-04-29T00:11:43.969Z,67.30
2019-04-29T00:14:13.934Z,67.50
2019-04-29T00:16:47.773Z,67.40
2019-04-29T00:19:30.831Z,67.50
2019-04-29T00:22:01.186Z,67.30
2019-04-29T00:24:30.677Z,67.40
2019-04-29T00:27:00.116Z,67.50
2019-04-29T00:29:29.797Z,67.40
2019-04-29T00:32:01.683Z,67.50
2019-04-29T00:34:32.396Z,67.50
2019-04-29T00:37:12.227Z,67.50
2019-04-29T00:40:01.466Z,67.50
2019-04-29T00:42:47.565Z,67.40
2019-04-29T00:45:18.027Z,67.40
2019-04-29T00:47:47.376Z,67.40
2019-04-29T00:50:17.135Z,67.40
2019-04-29T00:52:46.657Z,67.30
2019-04-29T00:55:17.727Z,67.50
2019-04-29T00:57:47.146Z,67.60
2019-04-29T01:00:18.607Z,67.50
2019-04-29T01:02:47.952Z,67.50
2019-04-29T01:05:21.065Z,67.50
2019-04-29T01:07:51.970Z,67.60
2019-04-29T01:10:21.374Z,67.60
2019-04-29T01:12:50.728Z,67.50
2019-04-29T01:15:20.359Z,67.60
2019-04-29T01:17:49.792Z,67.70
2019-04-29T01:20:19.562Z,67.60
2019-04-29T01:22:51.781Z,67.60
2019-04-29T01:25:21.210Z,67.60
2019-04-29T01:27:53.393Z,67.60
2019-04-29T01:30:41.205Z,67.50
2019-04-29T01:33:10.658Z,67.60
2019-04-29T01:35:40.423Z,67.80
2019-04-29T01:38:09.904Z,67.80
2019-04-29T01:40:48.434Z,67.90
2019-04-29T01:43:17.839Z,68.00
2019-04-29T01:45:48.791Z,68.00
2019-04-29T01:48:18.223Z,68.80
2019-04-29T01:50:47.691Z,67.90
2019-04-29T01:53:17.125Z,68.20
2019-04-29T01:55:46.540Z,68.20
2019-04-29T01:58:16.247Z,68.20
2019-04-29T02:00:45.955Z,68.30
2019-04-29T02:03:15.390Z,68.50
2019-04-29T02:05:44.850Z,68.30
2019-04-29T02:08:15.243Z,68.40
2019-04-29T02:10:44.613Z,68.30
2019-04-29T02:13:14.391Z,68.30
2019-04-29T02:15:44.712Z,68.30
2019-04-29T02:18:15.005Z,68.00
2019-04-29T02:20:44.389Z,68.00
2019-04-29T02:23:15.461Z,68.30
2019-04-29T02:25:46.935Z,68.30
2019-04-29T02:28:16.638Z,68.40
2019-04-29T02:30:48.535Z,68.50
2019-04-29T02:33:18.048Z,68.50
2019-04-29T02:35:48.704Z,68.50
2019-04-29T02:38:19.772Z,69.20
2019-04-29T02:40:53.531Z,68.30
2019-04-29T02:43:40.807Z,68.20
2019-04-29T02:46:10.173Z,68.30
2019-04-29T02:48:39.617Z,69.10
2019-04-29T02:51:09.613Z,68.20
2019-04-29T02:53:39.118Z,68.20
2019-04-29T02:56:08.597Z,68.30
2019-04-29T02:58:43.456Z,68.10
2019-04-29T03:01:32.548Z,68.10
2019-04-29T03:04:05.604Z,68.20
2019-04-29T03:06:35.087Z,68.20
2019-04-29T03:09:06.944Z,68.20
2019-04-29T03:11:41.215Z,68.20
2019-04-29T03:14:10.793Z,68.20
2019-04-29T03:16:42.745Z,68.30
2019-04-29T03:19:13.721Z,68.20
2019-04-29T03:21:47.732Z,68.10
2019-04-29T03:24:17.555Z,68.20
2019-04-29T03:26:48.535Z,68.20
2019-04-29T03:29:23.884Z,68.30
2019-04-29T03:31:54.199Z,68.20
2019-04-29T03:34:24.109Z,68.30
2019-04-29T03:36:53.946Z,68.30
2019-04-29T03:39:23.402Z,68.30
2019-04-29T03:41:52.892Z,68.30
2019-04-29T03:44:24.754Z,68.30
2019-04-29T03:46:54.246Z,68.50
2019-04-29T03:49:24.867Z,68.30
2019-04-29T03:51:54.284Z,69.20
2019-04-29T03:54:25.285Z,68.30
2019-04-29T03:56:54.976Z,68.40
2019-04-29T03:59:24.442Z,68.30
2019-04-29T04:01:58.506Z,68.30
2019-04-29T04:04:45.900Z,68.30
2019-04-29T04:07:29.620Z,68.30
2019-04-29T04:10:01.975Z,68.40
2019-04-29T04:12:31.512Z,68.40
2019-04-29T04:15:02.546Z,68.30
2019-04-29T04:17:38.930Z,68.40
2019-04-29T04:20:09.938Z,68.50
2019-04-29T04:22:43.737Z,68.60
2019-04-29T04:25:13.275Z,68.50
2019-04-29T04:27:43.527Z,68.50
2019-04-29T04:30:14.678Z,68.50
2019-04-29T04:32:44.521Z,68.50
2019-04-29T04:35:15.736Z,68.50
2019-04-29T04:37:46.384Z,68.50
2019-04-29T04:40:29.766Z,68.50
2019-04-29T04:42:59.241Z,68.60
2019-04-29T04:45:28.644Z,68.50
2019-04-29T04:47:58.084Z,67.90
2019-04-29T04:50:27.549Z,68.60
2019-04-29T04:52:57.061Z,68.50
2019-04-29T04:55:32.157Z,68.50
2019-04-29T04:58:01.759Z,68.60
2019-04-29T05:00:34.804Z,68.60
2019-04-29T05:03:04.081Z,68.50
2019-04-29T05:05:33.623Z,68.60
2019-04-29T05:08:04.499Z,68.80
2019-04-29T05:10:33.884Z,68.90
2019-04-29T05:13:03.459Z,69.00
2019-04-29T05:15:32.833Z,69.00
2019-04-29T05:18:02.286Z,69.10
2019-04-29T05:20:31.660Z,69.10
2019-04-29T05:23:01.086Z,69.30
2019-04-29T05:25:31.864Z,69.10
2019-04-29T05:28:03.041Z,69.20
2019-04-29T05:30:33.393Z,69.10
2019-04-29T05:33:02.909Z,69.20
2019-04-29T05:35:50.190Z,69.20
2019-04-29T05:38:36.292Z,69.30
2019-04-29T05:41:05.751Z,69.30
2019-04-29T05:43:36.821Z,69.30
2019-04-29T05:46:17.342Z,69.40
2019-04-29T05:48:45.030Z,69.50
2019-04-29T05:51:17.582Z,69.60
2019-04-29T05:53:57.651Z,69.60
2019-04-29T05:56:31.137Z,69.80
2019-04-29T05:59:00.501Z,69.50
2019-04-29T06:01:31.248Z,69.60
2019-04-29T06:04:00.610Z,69.60
2019-04-29T06:06:30.047Z,69.50
2019-04-29T06:08:59.522Z,69.50
2019-04-29T06:11:28.976Z,69.60
2019-04-29T06:13:59.161Z,69.50
2019-04-29T06:16:28.725Z,69.60
2019-04-29T06:19:00.437Z,69.40
2019-04-29T06:21:29.495Z,69.50
2019-04-29T06:23:59.239Z,69.80
2019-04-29T06:26:31.752Z,69.70
2019-04-29T06:29:01.719Z,69.60
2019-04-29T06:31:32.743Z,69.70
2019-04-29T06:34:05.251Z,69.60
2019-04-29T06:36:33.375Z,69.60
2019-04-29T06:39:02.899Z,69.40
2019-04-29T06:41:33.864Z,69.80
2019-04-29T06:44:06.725Z,70.00
2019-04-29T06:46:34.762Z,70.00
2019-04-29T06:49:10.432Z,69.80
2019-04-29T06:51:37.195Z,69.80
2019-04-29T06:54:06.890Z,69.80
2019-04-29T06:56:36.588Z,69.70
2019-04-29T06:59:07.502Z,69.80
2019-04-29T07:01:38.680Z,70.00
2019-04-29T07:04:08.480Z,70.00
2019-04-29T07:06:38.046Z,69.90
2019-04-29T07:09:09.566Z,69.80
2019-04-29T07:11:40.361Z,69.90
2019-04-29T07:14:09.940Z,69.60
2019-04-29T07:16:39.559Z,69.60
2019-04-29T07:19:09.007Z,69.70
2019-04-29T07:21:41.859Z,69.90
2019-04-29T07:24:09.570Z,70.00
2019-04-29T07:26:39.174Z,70.40
2019-04-29T07:29:08.639Z,70.30
2019-04-29T07:31:38.124Z,70.20
2019-04-29T07:34:08.568Z,70.20
2019-04-29T07:36:38.046Z,70.30
2019-04-29T07:39:07.985Z,70.30
2019-04-29T07:41:40.383Z,70.20
2019-04-29T07:44:13.733Z,70.70
2019-04-29T07:46:56.774Z,70.30
2019-04-29T07:49:20.983Z,70.70
2019-04-29T07:51:51.597Z,70.50
2019-04-29T07:54:21.086Z,70.20
2019-04-29T07:56:50.928Z,70.30
2019-04-29T07:59:20.507Z,70.30
2019-04-29T08:01:51.003Z,70.50
2019-04-29T08:04:20.893Z,70.60
2019-04-29T08:06:50.632Z,70.80
2019-04-29T08:09:20.253Z,70.90
2019-04-29T08:11:50.731Z,70.90
2019-04-29T08:14:22.245Z,71.00
2019-04-29T08:16:53.908Z,70.80
2019-04-29T08:19:24.625Z,70.70
2019-04-29T08:21:54.992Z,70.60
2019-04-29T08:24:25.088Z,70.50
2019-04-29T08:26:54.797Z,70.30
2019-04-29T08:29:24.632Z,70.10
2019-04-29T08:31:57.314Z,70.40
2019-04-29T08:34:25.450Z,70.60
2019-04-29T08:36:55.067Z,70.90
2019-04-29T08:39:24.998Z,70.60
2019-04-29T08:41:58.925Z,70.80
2019-04-29T08:44:31.969Z,70.80
2019-04-29T08:47:15.538Z,71.00
2019-04-29T08:49:51.311Z,71.00
2019-04-29T08:52:16.240Z,70.70
2019-04-29T08:54:45.791Z,71.10
2019-04-29T08:57:16.039Z,71.00
2019-04-29T08:59:45.597Z,70.70
2019-04-29T09:02:15.151Z,70.50
2019-04-29T09:04:53.877Z,70.80
2019-04-29T09:07:22.211Z,70.50
2019-04-29T09:09:51.336Z,70.20
2019-04-29T09:12:23.777Z,70.80
2019-04-29T09:14:52.620Z,70.40
2019-04-29T09:17:22.129Z,70.30
2019-04-29T09:19:51.717Z,69.90
2019-04-29T09:22:22.832Z,70.10
2019-04-29T09:25:11.939Z,69.80
2019-04-29T09:27:44.942Z,69.40
2019-04-29T09:30:16.231Z,68.90
2019-04-29T09:32:45.795Z,68.00
2019-04-29T09:35:15.461Z,68.90
2019-04-29T09:37:45.015Z,69.20
2019-04-29T09:40:20.821Z,68.50
2019-04-29T09:42:57.023Z,67.80
2019-04-29T09:45:30.150Z,67.10
2019-04-29T09:47:59.511Z,66.60
2019-04-29T09:50:29.033Z,65.50
2019-04-29T09:52:58.506Z,65.20
2019-04-29T09:55:27.930Z,64.80
2019-04-29T09:57:57.408Z,63.60
2019-04-29T10:00:41.834Z,64.90
2019-04-29T10:03:15.828Z,65.10
2019-04-29T10:05:49.611Z,65.50
2019-04-29T10:08:19.040Z,65.40
2019-04-29T10:10:48.498Z,66.30
2019-04-29T10:13:18.277Z,67.00
2019-04-29T10:16:01.820Z,67.30
2019-04-29T10:18:33.194Z,67.60
2019-04-29T10:21:07.432Z,66.30
2019-04-29T10:23:36.964Z,66.70
2019-04-29T10:26:06.458Z,65.70
2019-04-29T10:28:38.451Z,64.20
2019-04-29T10:31:09.581Z,63.10
2019-04-29T10:33:39.355Z,61.70
2019-04-29T10:36:08.915Z,60.80
2019-04-29T10:38:40.404Z,61.40
2019-04-29T10:41:28.036Z,61.90
2019-04-29T10:43:59.275Z,62.50
2019-04-29T10:46:42.350Z,62.80
2019-04-29T10:49:34.763Z,63.90
2019-04-29T10:52:04.782Z,64.40
2019-04-29T10:54:35.517Z,63.90
2019-04-29T10:57:05.580Z,64.20
2019-04-29T10:59:36.713Z,63.70
2019-04-29T11:02:15.922Z,63.30
2019-04-29T11:04:47.355Z,61.40
2019-04-29T11:07:36.555Z,61.30
2019-04-29T11:10:24.979Z,61.40
2019-04-29T11:12:47.796Z,61.20
2019-04-29T11:15:19.185Z,59.20
2019-04-29T11:17:58.409Z,59.20
2019-04-29T11:20:21.722Z,59.90
2019-04-29T11:22:53.277Z,60.20
2019-04-29T11:25:41.168Z,59.00
2019-04-29T11:28:12.060Z,58.40
2019-04-29T11:30:41.918Z,61.10
2019-04-29T11:33:29.540Z,59.70
2019-04-29T11:36:05.493Z,59.30
2019-04-29T11:38:38.327Z,60.60
2019-04-29T11:41:11.742Z,59.90
2019-04-29T11:43:39.473Z,58.60
2019-04-29T11:46:09.880Z,57.30
2019-04-29T11:48:40.497Z,57.60
2019-04-29T11:51:14.838Z,57.70
2019-04-29T11:53:44.703Z,58.40
2019-04-29T11:56:14.177Z,59.30
2019-04-29T11:58:59.962Z,59.50
2019-04-29T12:01:38.796Z,59.50
2019-04-29T12:04:19.095Z,58.50
2019-04-29T12:06:51.346Z,56.30
2019-04-29T12:09:19.744Z,55.90
2019-04-29T12:11:49.287Z,56.70
2019-04-29T12:14:37.968Z,56.60
2019-04-29T12:17:08.581Z,58.00
2019-04-29T12:19:45.162Z,57.80
2019-04-29T12:22:26.898Z,58.30
2019-04-29T12:24:45.737Z,57.90
2019-04-29T12:27:19.873Z,58.60
2019-04-29T12:29:48.862Z,57.90
2019-04-29T12:32:26.651Z,57.00
2019-04-29T12:34:57.821Z,56.00
2019-04-29T12:37:38.264Z,57.00
2019-04-29T12:40:27.226Z,55.80
2019-04-29T12:43:04.130Z,56.20
2019-04-29T12:45:41.404Z,55.80
2019-04-29T12:48:23.994Z,55.20
2019-04-29T12:50:41.990Z,53.80
2019-04-29T12:53:11.387Z,54.60
2019-04-29T12:55:49.435Z,53.40
2019-04-29T12:58:19.364Z,53.80
2019-04-29T13:00:55.860Z,54.50
2019-04-29T13:03:30.361Z,55.70
2019-04-29T13:06:02.649Z,55.30
2019-04-29T13:08:43.848Z,56.50
2019-04-29T13:11:14.728Z,55.90
2019-04-29T13:13:44.508Z,54.20
2019-04-29T13:16:20.235Z,54.40
2019-04-29T13:19:12.510Z,54.30
2019-04-29T13:21:39.624Z,53.70
2019-04-29T13:24:22.106Z,52.80
2019-04-29T13:26:42.979Z,52.80
2019-04-29T13:29:25.982Z,52.20
2019-04-29T13:31:42.534Z,52.50
2019-04-29T13:34:23.849Z,52.60
2019-04-29T13:36:44.769Z,52.30
2019-04-29T13:39:14.555Z,52.10
2019-04-29T13:41:57.152Z,52.70
2019-04-29T13:44:19.376Z,53.40
2019-04-29T13:47:04.531Z,53.30
2019-04-29T13:49:53.586Z,52.00
2019-04-29T13:52:23.529Z,50.30
2019-04-29T13:54:53.197Z,51.70
2019-04-29T13:57:22.703Z,50.90
2019-04-29T13:59:59.770Z,50.30
2019-04-29T14:02:36.228Z,50.20
2019-04-29T14:05:06.839Z,50.30
2019-04-29T14:07:39.228Z,50.60
2019-04-29T14:10:10.198Z,51.00
2019-04-29T14:12:48.369Z,50.10
2019-04-29T14:15:11.394Z,50.10
2019-04-29T14:17:40.845Z,51.00
2019-04-29T14:20:15.222Z,50.70
2019-04-29T14:22:41.914Z,50.50
2019-04-29T14:25:13.639Z,50.50
2019-04-29T14:27:43.586Z,50.50
2019-04-29T14:30:15.942Z,50.70
2019-04-29T14:32:46.959Z,50.90
2019-04-29T14:35:21.770Z,51.20
2019-04-29T14:37:55.532Z,51.50
2019-04-29T14:40:22.320Z,51.20
2019-04-29T14:43:02.914Z,50.30
2019-04-29T14:45:34.998Z,49.80
2019-04-29T14:48:06.368Z,48.60
2019-04-29T14:50:35.862Z,48.90
2019-04-29T14:53:05.302Z,49.80
2019-04-29T14:55:34.700Z,49.10
2019-04-29T14:58:04.331Z,48.30
2019-04-29T15:00:42.620Z,49.00
2019-04-29T15:03:12.285Z,49.10
2019-04-29T15:05:41.773Z,47.10
2019-04-29T15:08:11.297Z,47.60
2019-04-29T15:10:41.572Z,47.70
2019-04-29T15:13:20.617Z,48.30
2019-04-29T15:16:03.797Z,47.10
2019-04-29T15:18:47.171Z,47.20
2019-04-29T15:21:32.234Z,47.20
2019-04-29T15:23:54.156Z,48.40
2019-04-29T15:26:23.877Z,47.80
2019-04-29T15:28:53.252Z,47.90
2019-04-29T15:31:23.917Z,47.70
2019-04-29T15:33:53.687Z,48.20
2019-04-29T15:36:23.145Z,48.20
2019-04-29T15:39:08.776Z,48.30
2019-04-29T15:41:29.820Z,48.10
2019-04-29T15:44:06.510Z,48.60
2019-04-29T15:46:26.129Z,48.70
2019-04-29T15:48:55.675Z,48.10
2019-04-29T15:51:25.045Z,48.10
2019-04-29T15:53:54.607Z,47.70
2019-04-29T15:56:28.868Z,47.40
2019-04-29T15:58:59.706Z,46.70
2019-04-29T16:01:28.353Z,47.10
2019-04-29T16:03:58.933Z,47.30
2019-04-29T16:06:33.979Z,47.10
2019-04-29T16:09:14.818Z,48.10
2019-04-29T16:11:49.248Z,47.30
2019-04-29T16:14:20.340Z,47.70
2019-04-29T16:16:49.768Z,47.30
2019-04-29T16:19:19.209Z,47.60
2019-04-29T16:21:48.674Z,46.70
2019-04-29T16:26:53.478Z,47.00
2019-04-29T16:29:20.175Z,47.50
2019-04-29T16:31:49.607Z,46.50
2019-04-29T16:34:19.047Z,46.70
2019-04-29T16:36:49.971Z,46.80
2019-04-29T16:39:19.927Z,46.50
2019-04-29T16:42:07.542Z,47.10
2019-04-29T16:44:38.547Z,46.90
2019-04-29T16:47:13.120Z,47.40
2019-04-29T16:49:45.581Z,47.00
2019-04-29T16:52:15.236Z,47.90
2019-04-29T16:54:45.665Z,48.50
2019-04-29T16:57:15.067Z,47.50
2019-04-29T16:59:44.504Z,47.00
2019-04-29T17:02:19.101Z,47.20
2019-04-29T17:04:45.038Z,47.10
2019-04-29T17:07:15.965Z,47.70
2019-04-29T17:09:50.763Z,47.50
2019-04-29T17:12:20.228Z,48.10
2019-04-29T17:15:03.823Z,48.10
2019-04-29T17:17:28.822Z,47.90
2019-04-29T17:19:55.165Z,47.90
2019-04-29T17:22:27.628Z,48.10
2019-04-29T17:24:57.872Z,47.90
2019-04-29T17:27:28.952Z,48.00
2019-04-29T17:30:09.488Z,48.30
2019-04-29T17:32:44.379Z,47.60
2019-04-29T17:35:12.973Z,48.50
2019-04-29T17:35:18.961Z,47.60
2019-04-29T17:37:42.505Z,48.20
2019-04-29T17:40:14.518Z,48.60
2019-04-29T17:42:45.648Z,48.50
2019-04-29T17:45:27.062Z,48.50
2019-04-29T17:47:55.292Z,48.60
2019-04-29T17:50:45.980Z,48.40
2019-04-29T17:53:11.190Z,48.60
2019-04-29T17:55:45.332Z,48.40
2019-04-29T17:58:19.454Z,48.50
2019-04-29T18:00:59.679Z,48.20
2019-04-29T18:03:43.142Z,48.30
2019-04-29T18:06:18.810Z,48.40
2019-04-29T18:08:56.063Z,48.80
2019-04-29T18:11:25.924Z,48.70
2019-04-29T18:13:56.874Z,48.60
2019-04-29T18:16:28.531Z,48.60
2019-04-29T18:19:02.370Z,48.70
2019-04-29T18:21:50.230Z,48.80
2019-04-29T18:24:25.377Z,49.10
2019-04-29T18:27:05.575Z,49.10
2019-04-29T18:29:41.372Z,48.90
2019-04-29T18:32:08.064Z,49.00
2019-04-29T18:34:37.519Z,49.20
2019-04-29T18:37:08.148Z,49.20
2019-04-29T18:39:38.150Z,48.90
2019-04-29T18:42:07.735Z,49.10
2019-04-29T18:44:40.554Z,49.20
2019-04-29T18:47:20.014Z,49.30
2019-04-29T18:49:47.948Z,49.30
2019-04-29T18:52:25.398Z,49.70
2019-04-29T18:54:48.728Z,49.60
2019-04-29T18:57:27.900Z,49.70
2019-04-29T18:59:49.197Z,49.70
2019-04-29T19:02:18.660Z,49.90
2019-04-29T19:04:56.553Z,50.10
2019-04-29T19:07:31.851Z,50.60
2019-04-29T19:10:01.871Z,50.40
2019-04-29T19:12:31.514Z,51.00
2019-04-29T19:15:04.904Z,51.60
2019-04-29T19:17:36.784Z,51.20
2019-04-29T19:20:08.719Z,51.20
2019-04-29T19:22:36.092Z,51.60
2019-04-29T19:25:10.418Z,51.50
2019-04-29T19:27:39.966Z,51.60
2019-04-29T19:30:09.328Z,51.80
2019-04-29T19:32:39.269Z,51.80
2019-04-29T19:35:11.222Z,51.80
2019-04-29T19:37:40.467Z,51.90
2019-04-29T19:40:11.375Z,52.20
2019-04-29T19:42:41.008Z,52.00
2019-04-29T19:45:13.071Z,52.00
2019-04-29T19:47:47.402Z,52.10
2019-04-29T19:50:16.634Z,52.10
2019-04-29T19:52:47.483Z,52.70
2019-04-29T19:55:16.986Z,52.40
2019-04-29T19:57:47.991Z,52.30
2019-04-29T20:00:18.503Z,52.50
2019-04-29T20:02:50.236Z,53.10
2019-04-29T20:05:31.703Z,52.90
2019-04-29T20:07:59.290Z,53.00
2019-04-29T20:10:30.406Z,53.20
2019-04-29T20:13:00.697Z,53.10
2019-04-29T20:15:36.747Z,53.20
2019-04-29T20:18:07.768Z,53.80
2019-04-29T20:20:43.061Z,53.60
2019-04-29T20:23:12.667Z,53.60
2019-04-29T20:25:42.281Z,53.70
2019-04-29T20:28:17.278Z,53.60
2019-04-29T20:30:43.218Z,53.60
2019-04-29T20:33:13.067Z,53.70
2019-04-29T20:35:45.354Z,53.90
2019-04-29T20:38:15.557Z,53.70
2019-04-29T20:40:46.574Z,53.80
2019-04-29T20:43:20.392Z,54.00
2019-04-29T20:45:47.433Z,54.30
2019-04-29T20:48:19.588Z,54.30
2019-04-29T20:50:52.876Z,54.20
2019-04-29T20:53:23.279Z,54.00
2019-04-29T20:55:52.837Z,54.40
2019-04-29T20:58:23.561Z,54.30
2019-04-29T21:00:58.337Z,54.60
2019-04-29T21:03:29.920Z,54.70
2019-04-29T21:06:02.686Z,54.80
2019-04-29T21:08:27.181Z,54.70
2019-04-29T21:10:58.227Z,55.80
2019-04-29T21:13:41.378Z,54.80
2019-04-29T21:16:12.416Z,54.90
2019-04-29T21:18:45.520Z,55.50
2019-04-29T21:21:12.928Z,55.20
2019-04-29T21:23:42.615Z,55.10
2019-04-29T21:26:12.119Z,55.20
2019-04-29T21:28:44.631Z,55.10
2019-04-29T21:31:16.643Z,55.40
2019-04-29T21:33:45.604Z,55.40
2019-04-29T21:36:17.798Z,56.00
2019-04-29T21:38:48.811Z,56.00
2019-04-29T21:41:27.394Z,56.00
2019-04-29T21:43:57.058Z,56.00
2019-04-29T21:46:29.480Z,56.60
2019-04-29T21:48:57.584Z,55.90
2019-04-29T21:51:27.042Z,56.00
2019-04-29T21:53:56.478Z,56.10
2019-04-29T21:56:25.930Z,56.40
2019-04-29T21:58:55.394Z,56.70
2019-04-29T22:01:25.234Z,56.50
2019-04-29T22:03:57.651Z,56.60
2019-04-29T22:06:29.094Z,56.60
2019-04-29T22:09:01.606Z,56.30
2019-04-29T22:11:28.073Z,56.60
2019-04-29T22:13:57.577Z,56.70
2019-04-29T22:16:27.779Z,56.90
2019-04-29T22:18:57.336Z,57.00
2019-04-29T22:21:26.770Z,57.20
2019-04-29T22:23:56.133Z,57.10
2019-04-29T22:26:26.895Z,57.80
2019-04-29T22:29:01.738Z,58.60
2019-04-29T22:31:33.818Z,57.90
2019-04-29T22:33:58.893Z,57.60
2019-04-29T22:36:28.318Z,58.20
2019-04-29T22:38:57.667Z,57.70
2019-04-29T22:41:28.970Z,58.00
2019-04-29T22:44:06.185Z,58.40
2019-04-29T22:46:35.781Z,58.50
2019-04-29T22:49:05.843Z,58.20
2019-04-29T22:51:35.580Z,58.70
2019-04-29T22:54:06.091Z,58.60
2019-04-29T22:56:36.065Z,58.90
2019-04-29T22:59:05.861Z,58.30
2019-04-29T23:01:36.389Z,58.80
2019-04-29T23:04:09.569Z,58.60
2019-04-29T23:06:39.821Z,58.90
2019-04-29T23:09:11.987Z,58.70
2019-04-29T23:11:40.761Z,58.90
2019-04-29T23:14:10.415Z,58.80
2019-04-29T23:16:39.999Z,59.10
2019-04-29T23:19:14.034Z,58.80
2019-04-29T23:21:52.494Z,59.20
2019-04-29T23:24:29.380Z,59.30
2019-04-29T23:26:59.171Z,60.80
2019-04-29T23:29:28.619Z,59.80
2019-04-29T23:32:04.747Z,60.60
2019-04-29T23:46:07.166Z,60.00
2019-04-29T23:48:39.540Z,59.80
2019-04-29T23:51:08.355Z,59.90
2019-04-29T23:53:38.009Z,60.20
2019-04-29T23:56:09.691Z,60.60
2019-04-29T23:58:40.493Z,60.40
